createdAt,value
2018-06-16T00:00:23.792Z,2.43
2018-06-16T00:02:51.900Z,2.70
2018-06-16T00:05:20.001Z,2.33
2018-06-16T00:07:47.870Z,2.37
2018-06-16T00:10:15.739Z,2.83
2018-06-16T00:12:43.647Z,2.30
2018-06-16T00:15:11.760Z,2.57
2018-06-16T00:17:39.888Z,2.67
2018-06-16T00:20:11.306Z,2.50
2018-06-16T00:22:40.946Z,2.27
2018-06-16T00:25:10.180Z,2.70
2018-06-16T00:27:38.788Z,2.70
2018-06-16T00:30:08.683Z,2.67
2018-06-16T00:32:36.777Z,2.20
2018-06-16T00:35:04.891Z,2.60
2018-06-16T00:37:33.208Z,2.70
2018-06-16T00:40:02.487Z,2.83
2018-06-16T00:42:31.555Z,2.70
2018-06-16T00:44:59.664Z,2.40
2018-06-16T00:47:27.748Z,2.47
2018-06-16T00:49:55.820Z,2.70
2018-06-16T00:52:24.730Z,2.63
2018-06-16T00:54:52.803Z,2.70
2018-06-16T00:57:32.416Z,2.60
2018-06-16T01:00:00.525Z,2.50
2018-06-16T01:02:28.627Z,2.60
2018-06-16T01:04:56.746Z,2.70
2018-06-16T01:07:24.839Z,2.40
2018-06-16T01:09:53.324Z,2.43
2018-06-16T01:12:21.491Z,2.50
2018-06-16T01:14:49.591Z,2.67
2018-06-16T01:17:22.613Z,2.93
2018-06-16T01:19:50.771Z,3.13
2018-06-16T01:22:19.013Z,2.70
2018-06-16T01:24:47.131Z,2.67
2018-06-16T01:27:15.239Z,2.80
2018-06-16T01:29:43.375Z,2.50
2018-06-16T01:32:11.610Z,2.47
2018-06-16T01:34:39.771Z,2.33
2018-06-16T01:37:07.875Z,2.37
2018-06-16T01:39:36.060Z,2.67
2018-06-16T01:42:04.161Z,2.37
2018-06-16T01:44:32.253Z,2.50
2018-06-16T01:47:00.395Z,2.60
2018-06-16T01:49:28.567Z,2.60
2018-06-16T01:51:56.691Z,2.53
2018-06-16T01:54:24.810Z,2.43
2018-06-16T01:56:52.909Z,2.27
2018-06-16T01:59:20.987Z,2.40
2018-06-16T02:01:49.120Z,2.20
2018-06-16T02:04:17.224Z,2.50
2018-06-16T02:06:45.384Z,2.90
2018-06-16T02:09:13.531Z,2.53
2018-06-16T02:11:41.615Z,2.60
2018-06-16T02:14:10.628Z,2.57
2018-06-16T02:16:38.949Z,2.90
2018-06-16T02:19:07.059Z,2.30
2018-06-16T02:21:35.172Z,2.80
2018-06-16T02:24:03.260Z,2.07
2018-06-16T02:26:31.360Z,2.30
2018-06-16T02:28:59.473Z,2.10
2018-06-16T02:31:27.565Z,2.57
2018-06-16T02:33:55.650Z,2.60
2018-06-16T02:36:24.065Z,2.63
2018-06-16T02:38:52.195Z,2.30
2018-06-16T02:41:20.299Z,2.77
2018-06-16T02:43:48.423Z,2.30
2018-06-16T02:46:16.752Z,2.30
2018-06-16T02:48:44.866Z,2.70
2018-06-16T02:51:13.002Z,2.70
2018-06-16T02:53:41.117Z,2.70
2018-06-16T02:56:09.244Z,2.60
2018-06-16T02:58:37.133Z,2.23
2018-06-16T03:01:05.240Z,2.50
2018-06-16T03:03:33.380Z,2.33
2018-06-16T03:06:01.469Z,2.50
2018-06-16T03:08:29.572Z,2.30
2018-06-16T03:10:57.694Z,2.77
2018-06-16T03:13:25.798Z,2.40
2018-06-16T03:15:53.879Z,2.37
2018-06-16T03:18:21.992Z,2.30
2018-06-16T03:20:50.118Z,2.50
2018-06-16T03:23:18.259Z,2.80
2018-06-16T03:25:46.359Z,2.37
2018-06-16T03:28:14.443Z,2.70
2018-06-16T03:30:42.562Z,2.60
2018-06-16T03:33:10.652Z,2.60
2018-06-16T03:35:38.749Z,2.30
2018-06-16T03:38:06.831Z,2.30
2018-06-16T03:40:34.968Z,2.57
2018-06-16T03:43:03.377Z,2.77
2018-06-16T03:45:31.484Z,2.40
2018-06-16T03:47:59.382Z,2.43
2018-06-16T03:50:27.463Z,2.60
2018-06-16T03:52:55.571Z,2.30
2018-06-16T03:55:23.686Z,2.60
2018-06-16T03:57:51.779Z,2.30
2018-06-16T04:00:19.865Z,2.87
2018-06-16T04:02:47.954Z,2.57
2018-06-16T04:05:16.047Z,2.50
2018-06-16T04:07:44.157Z,2.30
2018-06-16T04:10:12.240Z,2.37
2018-06-16T04:12:40.339Z,2.50
2018-06-16T04:15:08.423Z,2.50
2018-06-16T04:17:36.572Z,2.70
2018-06-16T04:20:04.711Z,2.80
2018-06-16T04:22:32.592Z,3.03
2018-06-16T04:25:00.818Z,2.90
2018-06-16T04:27:28.932Z,2.60
2018-06-16T04:29:57.048Z,2.30
2018-06-16T04:32:25.139Z,2.67
2018-06-16T04:34:54.068Z,3.07
2018-06-16T04:37:22.164Z,2.83
2018-06-16T04:39:50.255Z,3.00
2018-06-16T04:42:18.360Z,2.47
2018-06-16T04:44:46.445Z,2.83
2018-06-16T04:47:14.572Z,2.80
2018-06-16T04:49:42.658Z,2.83
2018-06-16T04:52:10.768Z,2.70
2018-06-16T04:54:38.891Z,2.67
2018-06-16T04:57:06.980Z,3.03
2018-06-16T04:59:35.095Z,2.70
2018-06-16T05:02:03.196Z,3.43
2018-06-16T05:04:31.301Z,2.60
2018-06-16T05:06:59.405Z,2.60
2018-06-16T05:09:27.307Z,2.80
2018-06-16T05:11:55.444Z,2.77
2018-06-16T05:14:23.568Z,2.80
2018-06-16T05:16:51.707Z,2.40
2018-06-16T05:19:19.766Z,2.40
2018-06-16T05:21:47.733Z,2.67
2018-06-16T05:24:15.810Z,2.80
2018-06-16T05:26:43.916Z,2.63
2018-06-16T05:29:12.017Z,3.17
2018-06-16T05:31:40.120Z,2.80
2018-06-16T05:34:08.223Z,2.63
2018-06-16T05:36:36.323Z,2.80
2018-06-16T05:39:07.460Z,3.00
2018-06-16T05:41:35.622Z,3.13
2018-06-16T05:44:03.731Z,2.47
2018-06-16T05:46:31.868Z,2.70
2018-06-16T05:48:59.967Z,2.53
2018-06-16T05:51:28.076Z,2.97
2018-06-16T05:53:56.013Z,2.90
2018-06-16T05:56:24.080Z,3.00
2018-06-16T05:58:52.189Z,3.13
2018-06-16T06:01:20.284Z,2.90
2018-06-16T06:03:48.400Z,2.77
2018-06-16T06:06:16.500Z,3.27
2018-06-16T06:08:44.426Z,2.70
2018-06-16T06:11:12.532Z,3.13
2018-06-16T06:13:40.645Z,2.90
2018-06-16T06:16:08.743Z,3.23
2018-06-16T06:18:36.932Z,3.10
2018-06-16T06:21:05.041Z,3.63
2018-06-16T06:23:33.156Z,3.57
2018-06-16T06:26:01.260Z,2.93
2018-06-16T06:28:29.372Z,3.40
2018-06-16T06:30:57.490Z,3.40
2018-06-16T06:33:25.571Z,3.67
2018-06-16T06:35:53.673Z,3.23
2018-06-16T06:38:21.591Z,2.90
2018-06-16T06:40:49.797Z,3.27
2018-06-16T06:43:17.944Z,3.47
2018-06-16T06:45:46.108Z,3.57
2018-06-16T06:48:14.203Z,3.67
2018-06-16T06:50:42.312Z,3.80
2018-06-16T06:53:10.436Z,3.17
2018-06-16T06:55:38.528Z,3.37
2018-06-16T06:58:06.670Z,3.77
2018-06-16T07:00:35.002Z,3.43
2018-06-16T07:03:03.132Z,3.90
2018-06-16T07:05:31.228Z,3.43
2018-06-16T07:07:59.355Z,3.70
2018-06-16T07:10:27.477Z,3.60
2018-06-16T07:12:55.581Z,3.77
2018-06-16T07:15:23.688Z,3.20
2018-06-16T07:17:51.784Z,3.73
2018-06-16T07:20:20.150Z,3.23
2018-06-16T07:22:48.271Z,3.80
2018-06-16T07:25:16.405Z,3.50
2018-06-16T07:27:44.487Z,3.43
2018-06-16T07:30:12.623Z,3.50
2018-06-16T07:32:40.791Z,3.63
2018-06-16T07:35:09.029Z,3.43
2018-06-16T07:37:37.217Z,4.40
2018-06-16T07:40:05.385Z,3.70
2018-06-16T07:42:33.515Z,3.90
2018-06-16T07:45:01.649Z,3.77
2018-06-16T07:47:29.756Z,3.87
2018-06-16T07:49:58.027Z,4.50
2018-06-16T07:52:26.223Z,4.00
2018-06-16T07:54:54.537Z,3.80
2018-06-16T07:57:22.653Z,4.50
2018-06-16T07:59:50.780Z,3.80
2018-06-16T08:02:18.921Z,4.40
2018-06-16T08:04:47.028Z,4.50
2018-06-16T08:07:15.159Z,4.07
2018-06-16T08:09:43.299Z,4.03
2018-06-16T08:12:11.450Z,4.10
2018-06-16T08:14:39.577Z,3.93
2018-06-16T08:17:07.971Z,3.70
2018-06-16T08:19:36.123Z,3.40
2018-06-16T08:22:04.212Z,3.97
2018-06-16T08:24:32.355Z,4.10
2018-06-16T08:27:00.531Z,4.40
2018-06-16T08:29:28.628Z,4.27
2018-06-16T08:31:56.741Z,4.07
2018-06-16T08:34:24.872Z,4.30
2018-06-16T08:36:53.192Z,4.10
2018-06-16T08:39:21.296Z,3.63
2018-06-16T08:41:49.371Z,3.73
2018-06-16T08:44:17.545Z,5.10
2018-06-16T08:46:45.644Z,4.00
2018-06-16T08:49:13.751Z,4.80
2018-06-16T08:51:41.875Z,4.07
2018-06-16T08:54:09.978Z,3.97
2018-06-16T08:56:38.098Z,3.97
2018-06-16T08:59:06.201Z,4.00
2018-06-16T09:01:34.296Z,4.40
2018-06-16T09:04:02.417Z,4.00
2018-06-16T09:06:30.560Z,4.20
2018-06-16T09:08:58.657Z,4.70
2018-06-16T09:11:26.759Z,4.07
2018-06-16T09:13:54.843Z,3.87
2018-06-16T09:16:22.954Z,3.83
2018-06-16T09:18:51.072Z,3.87
2018-06-16T09:21:19.176Z,4.23
2018-06-16T09:23:47.319Z,3.60
2018-06-16T09:26:15.437Z,3.87
2018-06-16T09:28:43.544Z,4.27
2018-06-16T09:31:11.652Z,4.30
2018-06-16T09:33:39.748Z,4.37
2018-06-16T09:36:07.897Z,3.77
2018-06-16T09:38:35.979Z,4.13
2018-06-16T09:41:04.105Z,3.53
2018-06-16T09:43:32.200Z,3.70
2018-06-16T09:46:00.339Z,3.60
2018-06-16T09:48:28.604Z,4.03
2018-06-16T09:50:56.723Z,3.80
2018-06-16T09:53:24.796Z,3.13
2018-06-16T09:55:52.887Z,3.10
2018-06-16T09:58:21.020Z,3.70
2018-06-16T10:00:49.128Z,3.83
2018-06-16T10:03:17.276Z,3.73
2018-06-16T10:05:45.314Z,3.70
2018-06-16T10:08:13.407Z,3.57
2018-06-16T10:10:41.503Z,3.87
2018-06-16T10:13:09.595Z,3.50
2018-06-16T10:15:37.683Z,4.27
2018-06-16T10:18:05.823Z,3.97
2018-06-16T10:20:33.915Z,3.57
2018-06-16T10:23:02.016Z,3.90
2018-06-16T10:25:30.149Z,3.70
2018-06-16T10:27:58.239Z,3.40
2018-06-16T10:30:26.544Z,4.10
2018-06-16T10:32:54.640Z,3.90
2018-06-16T10:35:22.720Z,3.50
2018-06-16T10:37:50.825Z,4.00
2018-06-16T10:40:18.898Z,3.90
2018-06-16T10:42:46.976Z,3.60
2018-06-16T10:45:15.076Z,3.80
2018-06-16T10:47:43.200Z,4.10
2018-06-16T10:50:11.291Z,3.67
2018-06-16T10:52:39.375Z,3.73
2018-06-16T10:55:07.468Z,3.40
2018-06-16T10:57:35.564Z,4.07
2018-06-16T11:00:03.712Z,3.40
2018-06-16T11:02:31.627Z,3.30
2018-06-16T11:04:59.704Z,3.13
2018-06-16T11:07:27.815Z,3.47
2018-06-16T11:09:55.923Z,3.80
2018-06-16T11:12:24.024Z,3.67
2018-06-16T11:14:52.091Z,3.50
2018-06-16T11:17:20.179Z,3.53
2018-06-16T11:19:48.245Z,3.40
2018-06-16T11:22:16.331Z,3.13
2018-06-16T11:24:44.399Z,3.63
2018-06-16T11:27:12.504Z,3.23
2018-06-16T11:29:40.374Z,3.17
2018-06-16T11:32:08.487Z,3.00
2018-06-16T11:34:36.585Z,3.13
2018-06-16T11:37:04.716Z,3.40
2018-06-16T11:39:32.796Z,3.17
2018-06-16T11:42:00.927Z,2.83
2018-06-16T11:44:29.057Z,3.20
2018-06-16T11:46:57.180Z,2.97
2018-06-16T11:49:25.116Z,2.60
2018-06-16T11:51:53.523Z,2.60
2018-06-16T11:54:21.443Z,2.60
2018-06-16T11:56:49.539Z,2.60
2018-06-16T11:59:17.655Z,2.50
2018-06-16T12:01:45.816Z,2.70
2018-06-16T12:04:13.677Z,2.40
2018-06-16T12:06:41.557Z,2.47
2018-06-16T12:09:11.597Z,1.67
2018-06-16T12:11:39.695Z,1.80
2018-06-16T12:14:08.531Z,1.70
2018-06-16T12:16:36.803Z,1.80
2018-06-16T12:19:05.023Z,1.50
2018-06-16T12:21:33.144Z,1.70
2018-06-16T12:24:01.256Z,1.80
2018-06-16T12:26:29.367Z,1.80
2018-06-16T12:28:57.467Z,1.73
2018-06-16T12:31:25.400Z,1.57
2018-06-16T12:33:53.507Z,1.67
2018-06-16T12:36:21.663Z,1.50
2018-06-16T12:38:49.759Z,1.60
2018-06-16T12:41:17.722Z,1.30
2018-06-16T12:43:45.839Z,1.10
2018-06-16T12:46:13.980Z,1.40
2018-06-16T12:48:42.100Z,1.60
2018-06-16T12:51:10.278Z,1.03
2018-06-16T12:53:38.460Z,1.33
2018-06-16T12:56:06.588Z,1.37
2018-06-16T12:58:34.712Z,1.47
2018-06-16T13:01:02.852Z,1.63
2018-06-16T13:03:30.948Z,1.60
2018-06-16T13:05:59.082Z,1.97
2018-06-16T13:08:27.193Z,2.47
2018-06-16T13:10:55.379Z,1.80
2018-06-16T13:13:23.485Z,2.33
2018-06-16T13:15:51.358Z,2.10
2018-06-16T13:18:19.523Z,2.77
2018-06-16T13:20:47.639Z,2.93
2018-06-16T13:23:15.943Z,2.50
2018-06-16T13:25:44.064Z,2.37
2018-06-16T13:28:12.163Z,2.20
2018-06-16T13:30:40.270Z,2.50
2018-06-16T13:33:08.455Z,2.60
2018-06-16T13:35:36.649Z,2.63
2018-06-16T13:38:05.021Z,2.30
2018-06-16T13:40:32.908Z,2.20
2018-06-16T13:43:01.034Z,1.67
2018-06-16T13:45:30.049Z,1.60
2018-06-16T13:47:58.148Z,2.00
2018-06-16T13:50:26.234Z,2.00
2018-06-16T13:52:54.374Z,2.70
2018-06-16T13:55:22.302Z,2.17
2018-06-16T13:57:50.428Z,2.10
2018-06-16T14:00:18.328Z,2.70
2018-06-16T14:02:46.466Z,2.67
2018-06-16T14:05:14.572Z,2.20
2018-06-16T14:07:42.659Z,2.00
2018-06-16T14:10:10.742Z,2.10
2018-06-16T14:12:38.851Z,2.70
2018-06-16T14:15:06.959Z,2.27
2018-06-16T14:17:35.056Z,2.60
2018-06-16T14:20:03.196Z,2.60
2018-06-16T14:22:31.271Z,2.70
2018-06-16T14:24:59.372Z,2.80
2018-06-16T14:27:27.500Z,2.60
2018-06-16T14:29:55.623Z,2.87
2018-06-16T14:32:23.948Z,3.10
2018-06-16T14:34:52.055Z,2.90
2018-06-16T14:37:20.172Z,2.90
2018-06-16T14:39:48.063Z,2.90
2018-06-16T14:42:16.192Z,2.90
2018-06-16T14:44:44.340Z,3.13
2018-06-16T14:47:12.467Z,3.03
2018-06-16T14:49:40.567Z,3.30
2018-06-16T14:52:08.647Z,2.87
2018-06-16T14:54:36.776Z,2.97
2018-06-16T14:57:04.707Z,3.00
2018-06-16T14:59:32.934Z,3.07
2018-06-16T15:02:01.051Z,2.50
2018-06-16T15:04:29.226Z,3.37
2018-06-16T15:06:57.116Z,2.87
2018-06-16T15:09:25.249Z,2.83
2018-06-16T15:11:53.320Z,3.20
2018-06-16T15:14:21.609Z,2.67
2018-06-16T15:16:49.695Z,3.00
2018-06-16T15:19:17.787Z,2.70
2018-06-16T15:21:45.876Z,3.50
2018-06-16T15:24:13.771Z,2.97
2018-06-16T15:26:41.867Z,2.73
2018-06-16T15:29:10.027Z,3.00
2018-06-16T15:31:38.088Z,3.30
2018-06-16T15:34:06.196Z,3.10
2018-06-16T15:36:34.304Z,2.87
2018-06-16T15:39:02.430Z,3.10
2018-06-16T15:41:30.532Z,3.20
2018-06-16T15:43:58.617Z,2.90
2018-06-16T15:46:26.760Z,3.00
2018-06-16T15:48:55.727Z,3.50
2018-06-16T15:51:23.871Z,3.00
2018-06-16T15:53:51.964Z,3.40
2018-06-16T15:56:20.224Z,3.10
2018-06-16T15:58:48.337Z,3.67
2018-06-16T16:01:16.416Z,3.50
2018-06-16T16:03:44.534Z,3.70
2018-06-16T16:06:12.685Z,3.50
2018-06-16T16:08:40.796Z,3.30
2018-06-16T16:11:08.963Z,2.67
2018-06-16T16:13:37.082Z,3.20
2018-06-16T16:16:05.364Z,2.70
2018-06-16T16:18:33.470Z,3.47
2018-06-16T16:21:01.576Z,3.33
2018-06-16T16:23:29.719Z,3.40
2018-06-16T16:25:57.943Z,3.27
2018-06-16T16:28:26.068Z,3.03
2018-06-16T16:30:54.163Z,3.23
2018-06-16T16:33:22.262Z,3.07
2018-06-16T16:35:50.344Z,3.50
2018-06-16T16:38:18.659Z,3.00
2018-06-16T16:40:46.772Z,3.13
2018-06-16T16:43:14.907Z,3.10
2018-06-16T16:45:43.036Z,3.50
2018-06-16T16:48:11.155Z,3.20
2018-06-16T16:50:39.433Z,2.83
2018-06-16T16:53:07.564Z,3.50
2018-06-16T16:55:35.833Z,3.13
2018-06-16T16:58:03.930Z,3.50
2018-06-16T17:00:32.064Z,3.10
2018-06-16T17:03:00.149Z,3.70
2018-06-16T17:05:28.280Z,3.00
2018-06-16T17:07:56.383Z,3.13
2018-06-16T17:10:24.527Z,3.10
2018-06-16T17:12:52.416Z,3.40
2018-06-16T17:15:20.535Z,3.60
2018-06-16T17:17:48.953Z,3.37
2018-06-16T17:20:16.876Z,3.40
2018-06-16T17:22:45.065Z,3.57
2018-06-16T17:25:13.204Z,3.70
2018-06-16T17:27:41.351Z,3.57
2018-06-16T17:30:09.494Z,3.13
2018-06-16T17:32:37.598Z,3.17
2018-06-16T17:35:06.334Z,3.17
2018-06-16T17:37:34.494Z,3.40
2018-06-16T17:40:02.601Z,3.50
2018-06-16T17:42:30.766Z,3.03
2018-06-16T17:44:58.956Z,2.80
2018-06-16T17:47:27.096Z,3.37
2018-06-16T17:49:55.405Z,3.00
2018-06-16T17:52:23.500Z,3.13
2018-06-16T17:54:51.620Z,3.20
2018-06-16T17:57:19.751Z,3.43
2018-06-16T17:59:47.869Z,3.23
2018-06-16T18:02:16.013Z,3.40
2018-06-16T18:04:44.150Z,3.50
2018-06-16T18:07:12.428Z,3.43
2018-06-16T18:09:40.544Z,3.23
2018-06-16T18:12:08.680Z,3.20
2018-06-16T18:14:36.590Z,3.60
2018-06-16T18:17:04.732Z,3.17
2018-06-16T18:19:32.882Z,3.50
2018-06-16T18:22:01.020Z,3.10
2018-06-16T18:24:29.175Z,3.03
2018-06-16T18:26:57.324Z,3.70
2018-06-16T18:29:25.910Z,2.90
2018-06-16T18:31:54.014Z,3.57
2018-06-16T18:34:21.904Z,3.10
2018-06-16T18:36:50.025Z,3.90
2018-06-16T18:39:17.927Z,2.83
2018-06-16T18:41:46.047Z,3.40
2018-06-16T18:44:14.155Z,3.00
2018-06-16T18:46:42.315Z,3.23
2018-06-16T18:49:10.429Z,3.50
2018-06-16T18:51:38.536Z,3.53
2018-06-16T18:54:06.860Z,2.90
2018-06-16T18:56:35.499Z,3.20
2018-06-16T18:59:03.697Z,3.50
2018-06-16T19:01:31.829Z,3.27
2018-06-16T19:03:59.967Z,3.83
2018-06-16T19:06:28.139Z,2.80
2018-06-16T19:08:56.292Z,3.07
2018-06-16T19:11:24.412Z,3.30
2018-06-16T19:13:52.559Z,3.53
2018-06-16T19:16:20.449Z,3.27
2018-06-16T19:18:48.570Z,3.33
2018-06-16T19:21:23.031Z,2.87
2018-06-16T19:23:51.196Z,2.80
2018-06-16T19:26:19.331Z,3.30
2018-06-16T19:28:47.445Z,2.93
2018-06-16T19:31:15.561Z,3.00
2018-06-16T19:33:43.696Z,3.93
2018-06-16T19:36:11.828Z,3.60
2018-06-16T19:38:39.724Z,2.93
2018-06-16T19:41:07.869Z,3.33
2018-06-16T19:43:35.862Z,3.50
2018-06-16T19:46:04.025Z,3.10
2018-06-16T19:48:32.128Z,3.10
2018-06-16T19:51:00.301Z,3.10
2018-06-16T19:53:28.389Z,3.00
2018-06-16T19:55:56.498Z,3.33
2018-06-16T19:58:24.432Z,3.20
2018-06-16T20:00:52.647Z,3.30
2018-06-16T20:03:20.801Z,3.00
2018-06-16T20:05:48.923Z,2.90
2018-06-16T20:08:17.080Z,3.10
2018-06-16T20:10:45.234Z,3.30
2018-06-16T20:13:13.386Z,3.40
2018-06-16T20:15:41.570Z,2.97
2018-06-16T20:18:09.700Z,2.80
2018-06-16T20:20:37.784Z,3.27
2018-06-16T20:23:05.924Z,3.07
2018-06-16T20:25:34.036Z,2.60
2018-06-16T20:28:02.125Z,2.93
2018-06-16T20:30:30.444Z,3.37
2018-06-16T20:32:58.787Z,3.30
2018-06-16T20:35:27.003Z,3.30
2018-06-16T20:37:54.928Z,3.63
2018-06-16T20:40:23.155Z,2.60
2018-06-16T20:42:51.415Z,3.33
2018-06-16T20:45:19.544Z,3.40
2018-06-16T20:47:47.902Z,3.07
2018-06-16T20:50:15.971Z,3.47
2018-06-16T20:52:44.633Z,3.27
2018-06-16T20:55:12.707Z,3.27
2018-06-16T20:57:40.800Z,2.83
2018-06-16T21:00:09.252Z,3.53
2018-06-16T21:02:37.512Z,3.83
2018-06-16T21:05:05.527Z,3.37
2018-06-16T21:07:33.611Z,3.30
2018-06-16T21:10:01.742Z,2.90
2018-06-16T21:12:29.622Z,3.33
2018-06-16T21:14:57.708Z,3.53
2018-06-16T21:17:25.833Z,3.03
2018-06-16T21:19:53.928Z,3.10
2018-06-16T21:22:21.827Z,3.13
2018-06-16T21:24:49.959Z,3.20
2018-06-16T21:27:18.088Z,3.53
2018-06-16T21:29:46.192Z,3.63
2018-06-16T21:32:14.285Z,3.40
2018-06-16T21:34:42.396Z,3.30
2018-06-16T21:37:10.532Z,3.40
2018-06-16T21:39:38.654Z,3.60
2018-06-16T21:42:07.060Z,3.30
2018-06-16T21:44:35.167Z,3.37
2018-06-16T21:47:03.255Z,3.33
2018-06-16T21:49:31.375Z,3.20
2018-06-16T21:51:59.491Z,3.47
2018-06-16T21:54:27.623Z,3.63
2018-06-16T21:56:55.722Z,2.70
2018-06-16T21:59:23.815Z,3.30
2018-06-16T22:01:51.920Z,3.57
2018-06-16T22:04:20.036Z,3.13
2018-06-16T22:06:47.917Z,3.57
2018-06-16T22:09:16.009Z,3.43
2018-06-16T22:11:43.867Z,3.30
2018-06-16T22:14:11.987Z,3.30
2018-06-16T22:16:40.098Z,3.40
2018-06-16T22:19:08.187Z,3.23
2018-06-16T22:21:36.288Z,2.70
2018-06-16T22:24:04.545Z,3.57
2018-06-16T22:26:32.643Z,3.17
2018-06-16T22:29:00.756Z,3.37
2018-06-16T22:31:28.663Z,3.00
2018-06-16T22:33:56.783Z,3.13
2018-06-16T22:36:24.886Z,3.40
2018-06-16T22:38:53.036Z,3.60
2018-06-16T22:41:21.111Z,3.47
2018-06-16T22:43:49.212Z,3.10
2018-06-16T22:46:17.357Z,4.07
2018-06-16T22:48:45.468Z,3.90
2018-06-16T22:51:13.585Z,3.37
2018-06-16T22:53:41.679Z,3.50
2018-06-16T22:56:09.800Z,3.23
2018-06-16T22:58:37.877Z,3.50
2018-06-16T23:01:05.980Z,3.47
2018-06-16T23:03:34.076Z,3.20
2018-06-16T23:06:02.180Z,3.40
2018-06-16T23:08:30.292Z,3.53
2018-06-16T23:10:58.632Z,3.50
2018-06-16T23:13:26.711Z,3.30
2018-06-16T23:15:54.825Z,3.33
2018-06-16T23:18:22.715Z,3.20
2018-06-16T23:20:50.801Z,3.80
2018-06-16T23:23:18.895Z,3.20
2018-06-16T23:25:47.004Z,3.50
2018-06-16T23:28:15.115Z,3.30
2018-06-16T23:30:43.255Z,3.30
2018-06-16T23:33:11.352Z,3.90
2018-06-16T23:35:39.488Z,3.40
2018-06-16T23:38:07.616Z,3.70
2018-06-16T23:40:35.752Z,3.43
2018-06-16T23:43:03.864Z,3.87
2018-06-16T23:45:31.985Z,3.40
2018-06-16T23:48:00.095Z,3.30
2018-06-16T23:50:28.206Z,2.90
2018-06-16T23:52:56.360Z,3.80
2018-06-16T23:55:24.495Z,3.50
2018-06-16T23:57:52.599Z,3.33
